sensor_id;sensor_type;location;lat;lon;timestamp;temperature;humidity
51007;DHT22;37034;47.886;-3.904;2022-09-09T00:00:38;19.80;91.40
51007;DHT22;37034;47.886;-3.904;2022-09-09T00:03:14;19.80;91.40
51007;DHT22;37034;47.886;-3.904;2022-09-09T00:06:11;19.70;91.50
51007;DHT22;37034;47.886;-3.904;2022-09-09T00:11:52;19.70;91.50
51007;DHT22;37034;47.886;-3.904;2022-09-09T00:14:39;19.70;91.60
51007;DHT22;37034;47.886;-3.904;2022-09-09T00:17:14;19.70;91.50
51007;DHT22;37034;47.886;-3.904;2022-09-09T00:19:56;19.70;91.50
51007;DHT22;37034;47.886;-3.904;2022-09-09T00:22:28;19.70;91.50
51007;DHT22;37034;47.886;-3.904;2022-09-09T00:25:08;19.70;91.50
51007;DHT22;37034;47.886;-3.904;2022-09-09T00:27:45;19.70;91.60
51007;DHT22;37034;47.886;-3.904;2022-09-09T00:30:20;19.70;91.50
51007;DHT22;37034;47.886;-3.904;2022-09-09T00:32:50;19.70;91.50
51007;DHT22;37034;47.886;-3.904;2022-09-09T00:35:24;19.70;91.50
51007;DHT22;37034;47.886;-3.904;2022-09-09T00:37:53;19.70;91.50
51007;DHT22;37034;47.886;-3.904;2022-09-09T00:40:38;19.70;91.50
51007;DHT22;37034;47.886;-3.904;2022-09-09T00:43:26;19.70;91.50
51007;DHT22;37034;47.886;-3.904;2022-09-09T00:46:38;19.70;91.50
51007;DHT22;37034;47.886;-3.904;2022-09-09T00:51:26;19.60;91.50
51007;DHT22;37034;47.886;-3.904;2022-09-09T00:56:40;19.60;91.50
51007;DHT22;37034;47.886;-3.904;2022-09-09T00:59:48;19.60;91.60
51007;DHT22;37034;47.886;-3.904;2022-09-09T01:03:26;19.60;91.50
51007;DHT22;37034;47.886;-3.904;2022-09-09T01:07:51;19.50;91.40
51007;DHT22;37034;47.886;-3.904;2022-09-09T01:10:50;19.60;91.50
51007;DHT22;37034;47.886;-3.904;2022-09-09T01:13:44;19.50;91.70
51007;DHT22;37034;47.886;-3.904;2022-09-09T01:16:12;19.50;91.60
51007;DHT22;37034;47.886;-3.904;2022-09-09T01:18:45;19.50;91.60
51007;DHT22;37034;47.886;-3.904;2022-09-09T01:26:44;19.60;91.60
51007;DHT22;37034;47.886;-3.904;2022-09-09T01:29:14;19.50;91.50
51007;DHT22;37034;47.886;-3.904;2022-09-09T01:34:18;19.50;91.80
51007;DHT22;37034;47.886;-3.904;2022-09-09T01:39:19;19.50;91.60
51007;DHT22;37034;47.886;-3.904;2022-09-09T01:41:46;19.50;91.50
51007;DHT22;37034;47.886;-3.904;2022-09-09T01:44:12;19.50;91.50
51007;DHT22;37034;47.886;-3.904;2022-09-09T01:46:38;19.50;91.50
51007;DHT22;37034;47.886;-3.904;2022-09-09T01:49:05;19.50;91.50
51007;DHT22;37034;47.886;-3.904;2022-09-09T01:51:33;19.50;91.50
51007;DHT22;37034;47.886;-3.904;2022-09-09T01:53:59;19.50;91.50
51007;DHT22;37034;47.886;-3.904;2022-09-09T01:59:45;19.40;91.50
51007;DHT22;37034;47.886;-3.904;2022-09-09T02:02:34;19.40;91.50
51007;DHT22;37034;47.886;-3.904;2022-09-09T02:05:36;19.40;91.60
51007;DHT22;37034;47.886;-3.904;2022-09-09T02:08:18;19.40;91.70
51007;DHT22;37034;47.886;-3.904;2022-09-09T02:11:15;19.40;91.70
51007;DHT22;37034;47.886;-3.904;2022-09-09T02:13:43;19.40;91.60
51007;DHT22;37034;47.886;-3.904;2022-09-09T02:16:23;19.40;91.60
51007;DHT22;37034;47.886;-3.904;2022-09-09T02:18:57;19.40;91.60
51007;DHT22;37034;47.886;-3.904;2022-09-09T02:21:28;19.30;91.60
51007;DHT22;37034;47.886;-3.904;2022-09-09T02:23:55;19.30;91.70
51007;DHT22;37034;47.886;-3.904;2022-09-09T02:26:23;19.40;91.70
51007;DHT22;37034;47.886;-3.904;2022-09-09T02:28:53;19.40;91.70
51007;DHT22;37034;47.886;-3.904;2022-09-09T02:31:22;19.40;91.70
51007;DHT22;37034;47.886;-3.904;2022-09-09T02:33:55;19.40;91.70
51007;DHT22;37034;47.886;-3.904;2022-09-09T02:36:24;19.40;91.80
51007;DHT22;37034;47.886;-3.904;2022-09-09T02:38:52;19.50;91.80
51007;DHT22;37034;47.886;-3.904;2022-09-09T02:41:33;19.50;91.70
51007;DHT22;37034;47.886;-3.904;2022-09-09T02:44:00;19.50;91.60
51007;DHT22;37034;47.886;-3.904;2022-09-09T02:49:10;19.50;91.50
51007;DHT22;37034;47.886;-3.904;2022-09-09T02:51:51;19.50;91.50
51007;DHT22;37034;47.886;-3.904;2022-09-09T02:54:34;19.50;91.60
51007;DHT22;37034;47.886;-3.904;2022-09-09T02:57:14;19.50;91.60
51007;DHT22;37034;47.886;-3.904;2022-09-09T02:59:43;19.50;91.50
51007;DHT22;37034;47.886;-3.904;2022-09-09T03:02:10;19.50;91.50
51007;DHT22;37034;47.886;-3.904;2022-09-09T03:04:37;19.40;91.60
51007;DHT22;37034;47.886;-3.904;2022-09-09T03:07:03;19.50;91.60
51007;DHT22;37034;47.886;-3.904;2022-09-09T03:09:30;19.40;91.60
51007;DHT22;37034;47.886;-3.904;2022-09-09T03:11:56;19.40;91.70
51007;DHT22;37034;47.886;-3.904;2022-09-09T03:14:22;19.50;91.70
51007;DHT22;37034;47.886;-3.904;2022-09-09T03:16:51;19.50;91.70
51007;DHT22;37034;47.886;-3.904;2022-09-09T03:19:17;19.50;91.70
51007;DHT22;37034;47.886;-3.904;2022-09-09T03:21:44;19.40;91.80
51007;DHT22;37034;47.886;-3.904;2022-09-09T03:24:11;19.40;91.80
51007;DHT22;37034;47.886;-3.904;2022-09-09T03:26:36;19.40;91.80
51007;DHT22;37034;47.886;-3.904;2022-09-09T03:29:04;19.40;91.80
51007;DHT22;37034;47.886;-3.904;2022-09-09T03:31:32;19.40;91.90
51007;DHT22;37034;47.886;-3.904;2022-09-09T03:33:58;19.40;91.90
51007;DHT22;37034;47.886;-3.904;2022-09-09T03:36:25;19.30;91.80
51007;DHT22;37034;47.886;-3.904;2022-09-09T03:38:52;19.40;91.90
51007;DHT22;37034;47.886;-3.904;2022-09-09T03:41:17;19.30;91.90
51007;DHT22;37034;47.886;-3.904;2022-09-09T03:43:43;19.30;91.90
51007;DHT22;37034;47.886;-3.904;2022-09-09T03:46:09;19.40;91.90
51007;DHT22;37034;47.886;-3.904;2022-09-09T03:48:35;19.40;91.80
51007;DHT22;37034;47.886;-3.904;2022-09-09T03:51:01;19.40;91.80
51007;DHT22;37034;47.886;-3.904;2022-09-09T03:53:28;19.40;91.70
51007;DHT22;37034;47.886;-3.904;2022-09-09T03:55:55;19.40;91.80
51007;DHT22;37034;47.886;-3.904;2022-09-09T03:58:22;19.40;91.80
51007;DHT22;37034;47.886;-3.904;2022-09-09T04:00:54;19.40;91.80
51007;DHT22;37034;47.886;-3.904;2022-09-09T04:03:20;19.40;91.90
51007;DHT22;37034;47.886;-3.904;2022-09-09T04:05:48;19.40;91.90
51007;DHT22;37034;47.886;-3.904;2022-09-09T04:08:14;19.40;91.80
51007;DHT22;37034;47.886;-3.904;2022-09-09T04:10:40;19.40;91.70
51007;DHT22;37034;47.886;-3.904;2022-09-09T04:13:07;19.40;91.70
51007;DHT22;37034;47.886;-3.904;2022-09-09T04:15:33;19.40;91.60
51007;DHT22;37034;47.886;-3.904;2022-09-09T04:18:00;19.30;91.70
51007;DHT22;37034;47.886;-3.904;2022-09-09T04:20:26;19.30;91.70
51007;DHT22;37034;47.886;-3.904;2022-09-09T04:22:51;19.20;91.80
51007;DHT22;37034;47.886;-3.904;2022-09-09T04:25:17;19.30;91.80
51007;DHT22;37034;47.886;-3.904;2022-09-09T04:27:42;19.30;91.80
51007;DHT22;37034;47.886;-3.904;2022-09-09T04:30:09;19.30;91.80
51007;DHT22;37034;47.886;-3.904;2022-09-09T04:32:35;19.30;91.80
51007;DHT22;37034;47.886;-3.904;2022-09-09T04:35:02;19.30;91.80
51007;DHT22;37034;47.886;-3.904;2022-09-09T04:37:28;19.30;91.80
51007;DHT22;37034;47.886;-3.904;2022-09-09T04:39:54;19.30;91.80
51007;DHT22;37034;47.886;-3.904;2022-09-09T04:42:19;19.30;91.80
51007;DHT22;37034;47.886;-3.904;2022-09-09T04:44:45;19.30;91.80
51007;DHT22;37034;47.886;-3.904;2022-09-09T04:47:11;19.30;91.80
51007;DHT22;37034;47.886;-3.904;2022-09-09T04:49:37;19.30;91.80
51007;DHT22;37034;47.886;-3.904;2022-09-09T04:52:04;19.30;91.80
51007;DHT22;37034;47.886;-3.904;2022-09-09T04:54:29;19.20;91.70
51007;DHT22;37034;47.886;-3.904;2022-09-09T04:56:55;19.30;91.60
51007;DHT22;37034;47.886;-3.904;2022-09-09T04:59:21;19.20;91.70
51007;DHT22;37034;47.886;-3.904;2022-09-09T05:01:48;19.20;91.70
51007;DHT22;37034;47.886;-3.904;2022-09-09T05:04:15;19.20;91.70
51007;DHT22;37034;47.886;-3.904;2022-09-09T05:06:41;19.20;91.70
51007;DHT22;37034;47.886;-3.904;2022-09-09T05:09:08;19.30;91.60
51007;DHT22;37034;47.886;-3.904;2022-09-09T05:11:34;19.20;91.60
51007;DHT22;37034;47.886;-3.904;2022-09-09T05:14:02;19.20;91.60
51007;DHT22;37034;47.886;-3.904;2022-09-09T05:16:28;19.10;91.60
51007;DHT22;37034;47.886;-3.904;2022-09-09T05:18:55;19.20;91.60
51007;DHT22;37034;47.886;-3.904;2022-09-09T05:21:22;19.10;91.50
51007;DHT22;37034;47.886;-3.904;2022-09-09T05:23:48;19.10;91.60
51007;DHT22;37034;47.886;-3.904;2022-09-09T05:26:17;19.10;91.60
51007;DHT22;37034;47.886;-3.904;2022-09-09T05:28:44;19.00;91.70
51007;DHT22;37034;47.886;-3.904;2022-09-09T05:31:11;19.10;91.60
51007;DHT22;37034;47.886;-3.904;2022-09-09T05:33:38;19.10;91.60
51007;DHT22;37034;47.886;-3.904;2022-09-09T05:36:26;19.10;91.70
51007;DHT22;37034;47.886;-3.904;2022-09-09T05:38:52;19.00;91.50
51007;DHT22;37034;47.886;-3.904;2022-09-09T05:41:20;19.00;91.50
51007;DHT22;37034;47.886;-3.904;2022-09-09T05:43:48;19.00;91.50
51007;DHT22;37034;47.886;-3.904;2022-09-09T05:46:19;19.00;91.50
51007;DHT22;37034;47.886;-3.904;2022-09-09T05:48:47;18.90;91.50
51007;DHT22;37034;47.886;-3.904;2022-09-09T05:51:15;18.90;91.60
51007;DHT22;37034;47.886;-3.904;2022-09-09T05:53:43;18.90;91.60
51007;DHT22;37034;47.886;-3.904;2022-09-09T05:56:15;18.90;91.60
51007;DHT22;37034;47.886;-3.904;2022-09-09T05:58:41;18.90;91.60
51007;DHT22;37034;47.886;-3.904;2022-09-09T06:01:12;18.90;91.60
51007;DHT22;37034;47.886;-3.904;2022-09-09T06:03:42;18.90;91.60
51007;DHT22;37034;47.886;-3.904;2022-09-09T06:06:13;18.90;91.60
51007;DHT22;37034;47.886;-3.904;2022-09-09T06:08:41;18.90;91.70
51007;DHT22;37034;47.886;-3.904;2022-09-09T06:11:12;18.90;91.70
51007;DHT22;37034;47.886;-3.904;2022-09-09T06:13:38;18.90;91.70
51007;DHT22;37034;47.886;-3.904;2022-09-09T06:16:06;18.90;91.80
51007;DHT22;37034;47.886;-3.904;2022-09-09T06:18:33;18.90;91.80
51007;DHT22;37034;47.886;-3.904;2022-09-09T06:21:00;19.00;91.80
51007;DHT22;37034;47.886;-3.904;2022-09-09T06:23:27;18.90;91.90
51007;DHT22;37034;47.886;-3.904;2022-09-09T06:26:07;19.00;91.80
51007;DHT22;37034;47.886;-3.904;2022-09-09T06:28:35;19.00;91.90
51007;DHT22;37034;47.886;-3.904;2022-09-09T06:31:04;19.00;91.80
51007;DHT22;37034;47.886;-3.904;2022-09-09T06:33:34;19.00;91.90
51007;DHT22;37034;47.886;-3.904;2022-09-09T06:36:02;19.10;91.90
51007;DHT22;37034;47.886;-3.904;2022-09-09T06:38:29;19.10;91.90
51007;DHT22;37034;47.886;-3.904;2022-09-09T06:40:56;19.10;92.00
51007;DHT22;37034;47.886;-3.904;2022-09-09T06:43:24;19.10;91.90
51007;DHT22;37034;47.886;-3.904;2022-09-09T06:45:55;19.20;91.90
51007;DHT22;37034;47.886;-3.904;2022-09-09T06:48:20;19.20;91.80
51007;DHT22;37034;47.886;-3.904;2022-09-09T06:50:46;19.20;91.80
51007;DHT22;37034;47.886;-3.904;2022-09-09T06:53:12;19.30;91.90
51007;DHT22;37034;47.886;-3.904;2022-09-09T06:55:41;19.20;91.90
51007;DHT22;37034;47.886;-3.904;2022-09-09T06:58:09;19.30;92.10
51007;DHT22;37034;47.886;-3.904;2022-09-09T07:00:35;19.40;92.00
51007;DHT22;37034;47.886;-3.904;2022-09-09T07:03:03;19.50;92.10
51007;DHT22;37034;47.886;-3.904;2022-09-09T07:05:28;19.50;92.00
51007;DHT22;37034;47.886;-3.904;2022-09-09T07:07:54;19.60;92.10
51007;DHT22;37034;47.886;-3.904;2022-09-09T07:10:20;19.70;92.10
51007;DHT22;37034;47.886;-3.904;2022-09-09T07:12:52;19.80;92.10
51007;DHT22;37034;47.886;-3.904;2022-09-09T07:15:18;19.90;91.90
51007;DHT22;37034;47.886;-3.904;2022-09-09T07:17:45;19.90;91.90
51007;DHT22;37034;47.886;-3.904;2022-09-09T07:20:11;20.00;92.00
51007;DHT22;37034;47.886;-3.904;2022-09-09T07:22:37;20.10;91.80
51007;DHT22;37034;47.886;-3.904;2022-09-09T07:25:03;20.10;91.90
51007;DHT22;37034;47.886;-3.904;2022-09-09T07:27:29;20.20;91.50
51007;DHT22;37034;47.886;-3.904;2022-09-09T07:29:55;20.10;91.50
51007;DHT22;37034;47.886;-3.904;2022-09-09T07:32:21;20.20;91.60
51007;DHT22;37034;47.886;-3.904;2022-09-09T07:34:46;20.20;91.40
51007;DHT22;37034;47.886;-3.904;2022-09-09T07:37:13;20.20;91.70
51007;DHT22;37034;47.886;-3.904;2022-09-09T07:39:39;20.40;91.70
51007;DHT22;37034;47.886;-3.904;2022-09-09T07:42:05;20.40;91.50
51007;DHT22;37034;47.886;-3.904;2022-09-09T07:44:31;20.40;91.30
51007;DHT22;37034;47.886;-3.904;2022-09-09T07:47:01;20.40;91.40
51007;DHT22;37034;47.886;-3.904;2022-09-09T07:49:27;20.40;91.30
51007;DHT22;37034;47.886;-3.904;2022-09-09T07:51:52;20.40;91.40
51007;DHT22;37034;47.886;-3.904;2022-09-09T07:54:19;20.40;91.40
51007;DHT22;37034;47.886;-3.904;2022-09-09T07:56:46;20.40;91.40
51007;DHT22;37034;47.886;-3.904;2022-09-09T07:59:12;20.30;91.50
51007;DHT22;37034;47.886;-3.904;2022-09-09T08:01:44;20.20;91.30
51007;DHT22;37034;47.886;-3.904;2022-09-09T08:04:13;20.00;91.70
51007;DHT22;37034;47.886;-3.904;2022-09-09T08:06:44;20.00;91.70
51007;DHT22;37034;47.886;-3.904;2022-09-09T08:09:12;19.70;92.00
51007;DHT22;37034;47.886;-3.904;2022-09-09T08:11:39;19.60;92.10
51007;DHT22;37034;47.886;-3.904;2022-09-09T08:14:05;19.80;92.40
51007;DHT22;37034;47.886;-3.904;2022-09-09T08:16:34;19.90;92.20
51007;DHT22;37034;47.886;-3.904;2022-09-09T08:19:02;20.20;92.10
51007;DHT22;37034;47.886;-3.904;2022-09-09T08:21:30;20.30;91.80
51007;DHT22;37034;47.886;-3.904;2022-09-09T08:23:58;20.50;91.60
51007;DHT22;37034;47.886;-3.904;2022-09-09T08:26:33;20.50;91.10
51007;DHT22;37034;47.886;-3.904;2022-09-09T08:29:01;20.60;91.30
51007;DHT22;37034;47.886;-3.904;2022-09-09T08:31:41;20.60;91.10
51007;DHT22;37034;47.886;-3.904;2022-09-09T08:34:08;20.60;91.10
51007;DHT22;37034;47.886;-3.904;2022-09-09T08:36:37;20.40;90.90
51007;DHT22;37034;47.886;-3.904;2022-09-09T08:39:05;20.50;91.20
51007;DHT22;37034;47.886;-3.904;2022-09-09T08:57:54;20.80;91.00
51007;DHT22;37034;47.886;-3.904;2022-09-09T09:00:20;20.60;91.20
51007;DHT22;37034;47.886;-3.904;2022-09-09T09:02:49;20.50;91.40
51007;DHT22;37034;47.886;-3.904;2022-09-09T09:05:42;20.40;91.70
51007;DHT22;37034;47.886;-3.904;2022-09-09T09:08:39;20.40;91.80
51007;DHT22;37034;47.886;-3.904;2022-09-09T09:11:09;20.30;91.90
51007;DHT22;37034;47.886;-3.904;2022-09-09T09:13:55;20.40;92.00
51007;DHT22;37034;47.886;-3.904;2022-09-09T09:16:45;20.50;92.30
51007;DHT22;37034;47.886;-3.904;2022-09-09T09:19:15;20.60;92.00
51007;DHT22;37034;47.886;-3.904;2022-09-09T09:21:44;20.40;92.00
51007;DHT22;37034;47.886;-3.904;2022-09-09T09:24:22;20.30;92.40
51007;DHT22;37034;47.886;-3.904;2022-09-09T09:26:48;20.10;92.50
51007;DHT22;37034;47.886;-3.904;2022-09-09T09:29:17;20.10;92.50
51007;DHT22;37034;47.886;-3.904;2022-09-09T09:31:53;20.00;92.70
51007;DHT22;37034;47.886;-3.904;2022-09-09T09:34:23;20.00;92.70
51007;DHT22;37034;47.886;-3.904;2022-09-09T09:36:53;20.10;92.80
51007;DHT22;37034;47.886;-3.904;2022-09-09T09:39:28;20.10;92.50
51007;DHT22;37034;47.886;-3.904;2022-09-09T09:41:54;20.00;92.40
51007;DHT22;37034;47.886;-3.904;2022-09-09T09:44:31;19.90;92.60
51007;DHT22;37034;47.886;-3.904;2022-09-09T09:47:07;19.70;92.40
51007;DHT22;37034;47.886;-3.904;2022-09-09T09:49:33;19.80;92.80
51007;DHT22;37034;47.886;-3.904;2022-09-09T09:52:03;19.80;92.50
51007;DHT22;37034;47.886;-3.904;2022-09-09T09:54:32;19.90;92.60
51007;DHT22;37034;47.886;-3.904;2022-09-09T09:57:13;19.80;92.60
51007;DHT22;37034;47.886;-3.904;2022-09-09T09:59:40;19.80;92.70
51007;DHT22;37034;47.886;-3.904;2022-09-09T10:02:24;19.90;92.70
51007;DHT22;37034;47.886;-3.904;2022-09-09T10:05:08;19.90;92.70
51007;DHT22;37034;47.886;-3.904;2022-09-09T10:07:37;20.00;92.80
51007;DHT22;37034;47.886;-3.904;2022-09-09T10:10:04;20.10;92.90
51007;DHT22;37034;47.886;-3.904;2022-09-09T10:12:34;20.20;93.00
51007;DHT22;37034;47.886;-3.904;2022-09-09T10:21:45;20.70;92.70
51007;DHT22;37034;47.886;-3.904;2022-09-09T10:26:57;21.00;92.70
51007;DHT22;37034;47.886;-3.904;2022-09-09T10:35:31;20.80;92.70
51007;DHT22;37034;47.886;-3.904;2022-09-09T10:52:39;21.10;92.70
51007;DHT22;37034;47.886;-3.904;2022-09-09T10:57:11;21.20;92.20
51007;DHT22;37034;47.886;-3.904;2022-09-09T10:59:42;21.20;92.50
51007;DHT22;37034;47.886;-3.904;2022-09-09T11:02:27;21.20;92.30
51007;DHT22;37034;47.886;-3.904;2022-09-09T11:10:24;21.60;92.30
51007;DHT22;37034;47.886;-3.904;2022-09-09T11:12:54;21.70;92.50
51007;DHT22;37034;47.886;-3.904;2022-09-09T11:15:34;21.80;92.50
51007;DHT22;37034;47.886;-3.904;2022-09-09T11:18:04;22.00;92.30
51007;DHT22;37034;47.886;-3.904;2022-09-09T11:20:31;22.00;92.20
51007;DHT22;37034;47.886;-3.904;2022-09-09T11:23:05;22.30;92.40
51007;DHT22;37034;47.886;-3.904;2022-09-09T11:25:42;22.40;91.80
51007;DHT22;37034;47.886;-3.904;2022-09-09T11:28:32;22.30;90.70
51007;DHT22;37034;47.886;-3.904;2022-09-09T11:42:28;22.90;89.80
51007;DHT22;37034;47.886;-3.904;2022-09-09T11:44:54;23.00;89.80
51007;DHT22;37034;47.886;-3.904;2022-09-09T11:47:30;23.10;88.50
51007;DHT22;37034;47.886;-3.904;2022-09-09T11:52:45;23.10;87.70
51007;DHT22;37034;47.886;-3.904;2022-09-09T11:55:34;23.10;85.40
51007;DHT22;37034;47.886;-3.904;2022-09-09T11:58:26;23.00;85.00
51007;DHT22;37034;47.886;-3.904;2022-09-09T12:00:53;23.00;85.20
51007;DHT22;37034;47.886;-3.904;2022-09-09T12:03:44;23.00;86.00
51007;DHT22;37034;47.886;-3.904;2022-09-09T12:08:50;22.90;85.50
51007;DHT22;37034;47.886;-3.904;2022-09-09T12:11:29;23.00;84.60
51007;DHT22;37034;47.886;-3.904;2022-09-09T12:13:58;23.00;83.40
51007;DHT22;37034;47.886;-3.904;2022-09-09T12:16:34;23.00;81.80
51007;DHT22;37034;47.886;-3.904;2022-09-09T12:19:26;22.80;82.30
51007;DHT22;37034;47.886;-3.904;2022-09-09T12:22:22;22.80;81.30
51007;DHT22;37034;47.886;-3.904;2022-09-09T12:25:32;22.60;80.40
51007;DHT22;37034;47.886;-3.904;2022-09-09T12:28:45;22.70;80.80
51007;DHT22;37034;47.886;-3.904;2022-09-09T12:33:47;22.50;80.80
51007;DHT22;37034;47.886;-3.904;2022-09-09T12:36:19;22.60;80.00
51007;DHT22;37034;47.886;-3.904;2022-09-09T12:38:46;22.60;81.50
51007;DHT22;37034;47.886;-3.904;2022-09-09T12:41:24;22.80;79.70
51007;DHT22;37034;47.886;-3.904;2022-09-09T12:43:51;23.10;80.20
51007;DHT22;37034;47.886;-3.904;2022-09-09T12:46:39;23.20;79.80
51007;DHT22;37034;47.886;-3.904;2022-09-09T12:52:05;23.60;79.90
51007;DHT22;37034;47.886;-3.904;2022-09-09T12:54:34;23.70;78.40
51007;DHT22;37034;47.886;-3.904;2022-09-09T12:57:00;23.50;77.90
51007;DHT22;37034;47.886;-3.904;2022-09-09T12:59:36;23.50;78.60
51007;DHT22;37034;47.886;-3.904;2022-09-09T13:02:11;23.40;78.80
51007;DHT22;37034;47.886;-3.904;2022-09-09T13:04:39;23.40;79.50
51007;DHT22;37034;47.886;-3.904;2022-09-09T13:07:06;23.60;78.30
51007;DHT22;37034;47.886;-3.904;2022-09-09T13:09:35;23.70;78.90
51007;DHT22;37034;47.886;-3.904;2022-09-09T13:12:01;23.80;79.00
51007;DHT22;37034;47.886;-3.904;2022-09-09T13:14:36;24.00;79.10
51007;DHT22;37034;47.886;-3.904;2022-09-09T13:17:06;24.10;78.20
51007;DHT22;37034;47.886;-3.904;2022-09-09T13:19:36;24.10;76.70
51007;DHT22;37034;47.886;-3.904;2022-09-09T13:22:33;24.00;78.10
51007;DHT22;37034;47.886;-3.904;2022-09-09T13:25:18;24.10;77.20
51007;DHT22;37034;47.886;-3.904;2022-09-09T13:28:04;24.10;76.90
51007;DHT22;37034;47.886;-3.904;2022-09-09T13:30:33;24.10;76.90
51007;DHT22;37034;47.886;-3.904;2022-09-09T13:35:27;23.80;76.90
51007;DHT22;37034;47.886;-3.904;2022-09-09T13:37:53;23.60;76.90
51007;DHT22;37034;47.886;-3.904;2022-09-09T13:40:23;23.50;77.50
51007;DHT22;37034;47.886;-3.904;2022-09-09T13:42:54;23.60;77.90
51007;DHT22;37034;47.886;-3.904;2022-09-09T13:45:23;23.60;78.40
51007;DHT22;37034;47.886;-3.904;2022-09-09T13:47:53;23.40;78.50
51007;DHT22;37034;47.886;-3.904;2022-09-09T13:50:26;23.30;78.90
51007;DHT22;37034;47.886;-3.904;2022-09-09T13:52:54;23.20;78.80
51007;DHT22;37034;47.886;-3.904;2022-09-09T13:55:22;23.20;78.90
51007;DHT22;37034;47.886;-3.904;2022-09-09T13:57:56;22.90;79.40
51007;DHT22;37034;47.886;-3.904;2022-09-09T14:00:22;22.90;78.90
51007;DHT22;37034;47.886;-3.904;2022-09-09T14:02:50;22.80;78.30
51007;DHT22;37034;47.886;-3.904;2022-09-09T14:05:17;22.80;77.70
51007;DHT22;37034;47.886;-3.904;2022-09-09T14:07:44;22.80;77.50
51007;DHT22;37034;47.886;-3.904;2022-09-09T14:10:11;22.90;75.70
51007;DHT22;37034;47.886;-3.904;2022-09-09T14:12:37;23.00;76.60
51007;DHT22;37034;47.886;-3.904;2022-09-09T14:15:04;23.10;76.20
51007;DHT22;37034;47.886;-3.904;2022-09-09T14:17:30;23.00;77.20
51007;DHT22;37034;47.886;-3.904;2022-09-09T14:19:57;22.60;75.50
51007;DHT22;37034;47.886;-3.904;2022-09-09T14:22:23;22.40;76.90
51007;DHT22;37034;47.886;-3.904;2022-09-09T14:24:49;22.50;77.30
51007;DHT22;37034;47.886;-3.904;2022-09-09T14:27:16;22.80;77.60
51007;DHT22;37034;47.886;-3.904;2022-09-09T14:29:43;22.90;77.00
51007;DHT22;37034;47.886;-3.904;2022-09-09T14:32:10;23.00;76.60
51007;DHT22;37034;47.886;-3.904;2022-09-09T14:34:35;23.20;77.20
51007;DHT22;37034;47.886;-3.904;2022-09-09T14:37:01;23.30;76.70
51007;DHT22;37034;47.886;-3.904;2022-09-09T14:39:27;23.50;77.00
51007;DHT22;37034;47.886;-3.904;2022-09-09T14:41:53;23.70;77.00
51007;DHT22;37034;47.886;-3.904;2022-09-09T14:44:19;23.70;76.00
51007;DHT22;37034;47.886;-3.904;2022-09-09T14:46:44;23.60;75.60
51007;DHT22;37034;47.886;-3.904;2022-09-09T14:49:10;23.30;75.50
51007;DHT22;37034;47.886;-3.904;2022-09-09T14:51:36;23.20;76.70
51007;DHT22;37034;47.886;-3.904;2022-09-09T14:54:02;23.10;76.90
51007;DHT22;37034;47.886;-3.904;2022-09-09T14:56:30;23.00;77.10
51007;DHT22;37034;47.886;-3.904;2022-09-09T14:58:58;23.00;77.70
51007;DHT22;37034;47.886;-3.904;2022-09-09T15:01:26;23.10;78.00
51007;DHT22;37034;47.886;-3.904;2022-09-09T15:03:57;23.10;77.60
51007;DHT22;37034;47.886;-3.904;2022-09-09T15:06:24;23.10;78.70
51007;DHT22;37034;47.886;-3.904;2022-09-09T15:08:52;23.20;78.30
51007;DHT22;37034;47.886;-3.904;2022-09-09T15:11:19;23.10;78.20
51007;DHT22;37034;47.886;-3.904;2022-09-09T15:13:45;23.00;78.10
51007;DHT22;37034;47.886;-3.904;2022-09-09T15:16:16;23.00;76.70
51007;DHT22;37034;47.886;-3.904;2022-09-09T15:18:43;22.80;77.30
51007;DHT22;37034;47.886;-3.904;2022-09-09T15:21:11;22.80;77.00
51007;DHT22;37034;47.886;-3.904;2022-09-09T15:23:38;22.80;76.80
51007;DHT22;37034;47.886;-3.904;2022-09-09T15:26:05;22.70;76.60
51007;DHT22;37034;47.886;-3.904;2022-09-09T15:28:36;22.60;76.50
51007;DHT22;37034;47.886;-3.904;2022-09-09T15:31:12;22.60;76.80
51007;DHT22;37034;47.886;-3.904;2022-09-09T15:33:39;22.60;77.10
51007;DHT22;37034;47.886;-3.904;2022-09-09T15:38:43;22.70;77.40
51007;DHT22;37034;47.886;-3.904;2022-09-09T15:41:10;22.80;77.10
51007;DHT22;37034;47.886;-3.904;2022-09-09T15:43:35;22.70;76.60
51007;DHT22;37034;47.886;-3.904;2022-09-09T15:48:43;22.70;77.20
51007;DHT22;37034;47.886;-3.904;2022-09-09T15:51:10;22.70;76.50
51007;DHT22;37034;47.886;-3.904;2022-09-09T15:53:36;22.60;76.60
51007;DHT22;37034;47.886;-3.904;2022-09-09T15:56:05;22.60;76.80
51007;DHT22;37034;47.886;-3.904;2022-09-09T15:58:35;22.70;76.70
51007;DHT22;37034;47.886;-3.904;2022-09-09T16:01:06;22.70;76.70
51007;DHT22;37034;47.886;-3.904;2022-09-09T16:03:40;22.80;77.10
51007;DHT22;37034;47.886;-3.904;2022-09-09T16:06:15;22.80;76.60
51007;DHT22;37034;47.886;-3.904;2022-09-09T16:08:44;22.80;77.00
51007;DHT22;37034;47.886;-3.904;2022-09-09T16:11:11;22.90;77.20
51007;DHT22;37034;47.886;-3.904;2022-09-09T16:13:38;22.90;77.40
51007;DHT22;37034;47.886;-3.904;2022-09-09T16:16:06;22.90;77.20
51007;DHT22;37034;47.886;-3.904;2022-09-09T16:18:36;23.00;77.40
51007;DHT22;37034;47.886;-3.904;2022-09-09T16:21:03;22.80;77.20
51007;DHT22;37034;47.886;-3.904;2022-09-09T16:23:34;22.80;77.40
51007;DHT22;37034;47.886;-3.904;2022-09-09T16:26:01;22.80;78.20
51007;DHT22;37034;47.886;-3.904;2022-09-09T16:28:27;22.80;78.30
51007;DHT22;37034;47.886;-3.904;2022-09-09T16:30:52;22.80;79.00
51007;DHT22;37034;47.886;-3.904;2022-09-09T16:33:18;22.80;79.20
51007;DHT22;37034;47.886;-3.904;2022-09-09T16:35:44;22.90;79.50
51007;DHT22;37034;47.886;-3.904;2022-09-09T16:38:11;23.00;79.70
51007;DHT22;37034;47.886;-3.904;2022-09-09T16:40:39;23.10;80.10
51007;DHT22;37034;47.886;-3.904;2022-09-09T16:43:07;23.00;79.60
51007;DHT22;37034;47.886;-3.904;2022-09-09T16:45:43;23.10;79.60
51007;DHT22;37034;47.886;-3.904;2022-09-09T16:48:09;23.10;79.90
51007;DHT22;37034;47.886;-3.904;2022-09-09T16:50:35;23.10;79.90
51007;DHT22;37034;47.886;-3.904;2022-09-09T16:53:01;22.90;79.30
51007;DHT22;37034;47.886;-3.904;2022-09-09T16:55:31;22.90;79.50
51007;DHT22;37034;47.886;-3.904;2022-09-09T16:57:57;22.80;80.00
51007;DHT22;37034;47.886;-3.904;2022-09-09T17:00:23;22.80;79.80
51007;DHT22;37034;47.886;-3.904;2022-09-09T17:02:49;22.80;79.90
51007;DHT22;37034;47.886;-3.904;2022-09-09T17:05:14;22.80;80.20
51007;DHT22;37034;47.886;-3.904;2022-09-09T17:07:40;22.80;80.40
51007;DHT22;37034;47.886;-3.904;2022-09-09T17:10:06;22.80;80.60
51007;DHT22;37034;47.886;-3.904;2022-09-09T17:12:32;22.80;79.70
51007;DHT22;37034;47.886;-3.904;2022-09-09T17:14:58;22.80;79.50
51007;DHT22;37034;47.886;-3.904;2022-09-09T17:17:25;22.80;79.70
51007;DHT22;37034;47.886;-3.904;2022-09-09T17:19:52;22.80;79.20
51007;DHT22;37034;47.886;-3.904;2022-09-09T17:22:18;22.80;79.00
51007;DHT22;37034;47.886;-3.904;2022-09-09T17:24:45;22.70;78.90
51007;DHT22;37034;47.886;-3.904;2022-09-09T17:27:11;22.70;79.20